Time;durP1;ratioP1;P1;durP2;ratioP2;P2;SDS_P1;SDS_P2;PMS_P1;PMS_P2;Temp;Humidity;BMP_temperature;BMP_pressure;BME280_temperature;BME280_humidity;BME280_pressure;Samples;Min_cycle;Max_cycle;Signal;HPM_P1;HPM_P2
2023/01/23 00:00:26;;;;;;;2.90;2.13;;;;;;;;;;6149276;23;20153;-79
2023/01/23 00:02:51;;;;;;;3.83;2.00;;;;;;;;;;6150155;23;20171;-79
2023/01/23 00:05:19;;;;;;;4.27;2.40;;;;;;;;;;6145904;23;20555;-79
2023/01/23 00:07:45;;;;;;;6.93;2.47;;;;;;;;;;6147519;23;20149;-78
2023/01/23 00:10:13;;;;;;;4.23;2.17;;;;;;;;;;6147794;23;20361;-78
2023/01/23 00:12:42;;;;;;;5.03;1.90;;;;;;;;;;6125404;23;20464;-78
2023/01/23 00:15:08;;;;;;;2.77;2.07;;;;;;;;;;6151660;23;20388;-81
2023/01/23 00:17:33;;;;;;;7.67;2.20;;;;;;;;;;6148632;23;20376;-81
2023/01/23 00:19:59;;;;;;;5.13;2.47;;;;;;;;;;6151759;23;20499;-81
2023/01/23 00:22:24;;;;;;;3.23;1.97;;;;;;;;;;6151501;23;20149;-81
2023/01/23 00:24:50;;;;;;;4.23;2.40;;;;;;;;;;6152040;23;20188;-81
2023/01/23 00:27:15;;;;;;;4.90;2.23;;;;;;;;;;6150665;23;20199;-81
2023/01/23 00:29:40;;;;;;;5.00;2.10;;;;;;;;;;6148569;23;20161;-81
2023/01/23 00:32:06;;;;;;;4.37;1.93;;;;;;;;;;6151259;23;20153;-81
2023/01/23 00:34:31;;;;;;;9.10;2.40;;;;;;;;;;6123613;23;20630;-81
2023/01/23 00:36:56;;;;;;;3.70;1.80;;;;;;;;;;6131688;23;20153;-79
2023/01/23 00:39:22;;;;;;;3.73;2.00;;;;;;;;;;6130284;23;20279;-79
2023/01/23 00:41:48;;;;;;;3.77;1.80;;;;;;;;;;6154730;23;20148;-78
2023/01/23 00:44:13;;;;;;;2.83;2.00;;;;;;;;;;6125957;23;20169;-79
2023/01/23 00:46:39;;;;;;;3.30;2.03;;;;;;;;;;6127467;23;20408;-79
2023/01/23 00:49:04;;;;;;;7.23;2.00;;;;;;;;;;6153498;23;20172;-78
2023/01/23 00:51:29;;;;;;;4.23;2.30;;;;;;;;;;6154757;23;20237;-79
2023/01/23 00:53:55;;;;;;;5.03;2.60;;;;;;;;;;6125109;23;20177;-79
2023/01/23 00:56:23;;;;;;;3.50;2.10;;;;;;;;;;6122170;23;20152;-79
2023/01/23 00:58:48;;;;;;;3.93;1.90;;;;;;;;;;6150966;23;20261;-79
2023/01/23 01:01:14;;;;;;;4.73;2.20;;;;;;;;;;6150296;23;20857;-79
2023/01/23 01:03:39;;;;;;;5.43;1.93;;;;;;;;;;6150644;23;20387;-78
2023/01/23 01:06:05;;;;;;;2.73;1.70;;;;;;;;;;6151391;23;20866;-79
2023/01/23 01:08:30;;;;;;;5.73;1.90;;;;;;;;;;6125094;23;20184;-79
2023/01/23 01:10:55;;;;;;;6.43;1.83;;;;;;;;;;6126083;23;20153;-79
2023/01/23 01:13:22;;;;;;;6.63;2.40;;;;;;;;;;6171509;23;20153;-79
2023/01/23 01:15:48;;;;;;;3.70;2.13;;;;;;;;;;6151414;23;20134;-78
2023/01/23 01:18:13;;;;;;;3.10;1.80;;;;;;;;;;6147985;23;20395;-78
2023/01/23 01:20:40;;;;;;;5.37;2.03;;;;;;;;;;6149621;23;21062;-78
2023/01/23 01:23:06;;;;;;;3.20;1.70;;;;;;;;;;6149990;23;20375;-79
2023/01/23 01:25:31;;;;;;;3.80;2.13;;;;;;;;;;6148800;23;20161;-78
2023/01/23 01:27:56;;;;;;;3.50;1.90;;;;;;;;;;6145757;23;20149;-78
2023/01/23 01:30:22;;;;;;;4.40;1.90;;;;;;;;;;6123925;23;20164;-78
2023/01/23 01:32:47;;;;;;;4.53;2.20;;;;;;;;;;6150314;23;20145;-78
2023/01/23 01:35:13;;;;;;;6.30;1.97;;;;;;;;;;6149077;23;20173;-78
2023/01/23 01:37:39;;;;;;;2.73;1.90;;;;;;;;;;6123794;23;20658;-79
2023/01/23 01:40:05;;;;;;;5.37;2.53;;;;;;;;;;6148661;23;20173;-78
2023/01/23 01:42:31;;;;;;;5.77;2.03;;;;;;;;;;6148560;23;20416;-78
2023/01/23 01:45:00;;;;;;;3.63;2.53;;;;;;;;;;6122261;23;20400;-78
2023/01/23 01:47:26;;;;;;;2.70;1.67;;;;;;;;;;6148796;23;20483;-78
2023/01/23 01:49:53;;;;;;;4.83;2.10;;;;;;;;;;6148792;23;20376;-78
2023/01/23 01:52:19;;;;;;;3.53;2.13;;;;;;;;;;6145290;23;20177;-78
2023/01/23 01:54:54;;;;;;;3.63;2.00;;;;;;;;;;6120340;23;20483;-78
2023/01/23 01:57:21;;;;;;;4.60;2.27;;;;;;;;;;6119268;23;20388;-78
2023/01/23 01:59:48;;;;;;;5.07;1.53;;;;;;;;;;6119741;23;20483;-79
2023/01/23 02:02:19;;;;;;;2.83;1.83;;;;;;;;;;6145284;23;20376;-78
2023/01/23 02:04:47;;;;;;;4.53;1.97;;;;;;;;;;6144476;23;20406;-78
2023/01/23 02:07:17;;;;;;;5.30;1.80;;;;;;;;;;6147815;23;20455;-78
2023/01/23 02:09:42;;;;;;;4.63;2.13;;;;;;;;;;6146822;23;20769;-79
2023/01/23 02:12:10;;;;;;;3.07;1.73;;;;;;;;;;6122371;23;20381;-78
2023/01/23 02:14:35;;;;;;;3.50;1.90;;;;;;;;;;6124813;23;20648;-78
2023/01/23 02:17:02;;;;;;;2.73;1.70;;;;;;;;;;6149874;23;20383;-79
2023/01/23 02:19:42;;;;;;;4.90;2.10;;;;;;;;;;6121314;23;20181;-78
2023/01/23 02:22:12;;;;;;;5.37;2.37;;;;;;;;;;6150189;23;20385;-78
2023/01/23 02:24:42;;;;;;;5.13;2.20;;;;;;;;;;6134561;23;20784;-78
2023/01/23 02:27:08;;;;;;;6.40;2.37;;;;;;;;;;6154358;23;20369;-79
2023/01/23 02:29:44;;;;;;;6.13;2.50;;;;;;;;;;6153506;23;20369;-78
2023/01/23 02:32:10;;;;;;;2.77;2.00;;;;;;;;;;6151696;23;20207;-78
2023/01/23 02:34:36;;;;;;;4.63;2.00;;;;;;;;;;6149735;23;20397;-78
2023/01/23 02:37:02;;;;;;;3.27;1.93;;;;;;;;;;6150648;23;20160;-78
2023/01/23 02:39:27;;;;;;;2.70;1.63;;;;;;;;;;6150597;23;20416;-79
2023/01/23 02:41:55;;;;;;;4.37;2.17;;;;;;;;;;6150743;23;20497;-78
2023/01/23 02:44:25;;;;;;;3.60;2.10;;;;;;;;;;6149935;23;20520;-78
2023/01/23 02:46:52;;;;;;;4.73;1.90;;;;;;;;;;6150171;23;20693;-78
2023/01/23 02:49:18;;;;;;;7.80;2.90;;;;;;;;;;6149162;23;20400;-78
2023/01/23 02:51:44;;;;;;;3.50;1.80;;;;;;;;;;6149895;23;20421;-78
2023/01/23 02:54:09;;;;;;;3.43;1.97;;;;;;;;;;6152566;23;20794;-78
2023/01/23 02:56:34;;;;;;;4.90;2.00;;;;;;;;;;6151732;23;20153;-78
2023/01/23 03:01:43;;;;;;;3.10;2.00;;;;;;;;;;6155560;23;20136;-78
2023/01/23 03:04:09;;;;;;;3.13;1.70;;;;;;;;;;6170820;23;20389;-78
2023/01/23 03:06:36;;;;;;;2.73;1.77;;;;;;;;;;6179314;23;20265;-78
2023/01/23 03:09:09;;;;;;;4.40;1.97;;;;;;;;;;6173009;23;20150;-79
2023/01/23 03:11:35;;;;;;;5.97;2.03;;;;;;;;;;6151883;23;20369;-78
2023/01/23 03:14:00;;;;;;;2.73;1.83;;;;;;;;;;6147404;23;20880;-78
2023/01/23 03:16:27;;;;;;;5.17;2.43;;;;;;;;;;6148727;23;20369;-78
2023/01/23 03:18:52;;;;;;;2.53;1.60;;;;;;;;;;6148295;23;20272;-78
2023/01/23 03:21:18;;;;;;;4.80;2.80;;;;;;;;;;6149856;23;20396;-78
2023/01/23 03:23:45;;;;;;;3.60;2.30;;;;;;;;;;6148037;23;20188;-78
2023/01/23 03:26:11;;;;;;;4.10;2.20;;;;;;;;;;6122731;23;20229;-78
2023/01/23 03:31:20;;;;;;;4.80;2.20;;;;;;;;;;6150566;23;20217;-78
2023/01/23 03:33:45;;;;;;;4.23;1.90;;;;;;;;;;6149066;23;20795;-78
2023/01/23 03:36:11;;;;;;;4.67;1.90;;;;;;;;;;6122585;23;20156;-79
2023/01/23 03:38:37;;;;;;;3.30;2.07;;;;;;;;;;6150919;23;20300;-78
2023/01/23 03:43:46;;;;;;;4.00;2.27;;;;;;;;;;6149233;23;20180;-78
2023/01/23 03:46:11;;;;;;;5.80;2.60;;;;;;;;;;6125720;23;20376;-78
2023/01/23 03:48:36;;;;;;;4.10;2.20;;;;;;;;;;6125069;23;20164;-78
2023/01/23 03:51:02;;;;;;;3.20;1.97;;;;;;;;;;6148410;23;20488;-78
2023/01/23 03:53:27;;;;;;;3.47;2.30;;;;;;;;;;6151002;23;20632;-78
2023/01/23 03:55:52;;;;;;;5.47;1.80;;;;;;;;;;6150335;23;20623;-78
2023/01/23 03:58:18;;;;;;;5.50;2.40;;;;;;;;;;6149446;23;20173;-78
2023/01/23 04:00:43;;;;;;;3.20;2.27;;;;;;;;;;6151974;23;20146;-78
2023/01/23 04:03:08;;;;;;;4.80;1.80;;;;;;;;;;6151293;23;20165;-79
2023/01/23 04:05:34;;;;;;;2.60;2.00;;;;;;;;;;6149592;23;20197;-78
2023/01/23 04:07:59;;;;;;;3.23;2.00;;;;;;;;;;6145648;23;20231;-78
2023/01/23 04:10:24;;;;;;;6.73;2.50;;;;;;;;;;6122880;23;20157;-79
2023/01/23 04:12:52;;;;;;;2.80;2.10;;;;;;;;;;6124000;23;20153;-78
2023/01/23 04:15:17;;;;;;;4.97;2.33;;;;;;;;;;6150923;23;20188;-78
2023/01/23 04:17:43;;;;;;;2.67;2.13;;;;;;;;;;6127053;23;20456;-79
2023/01/23 04:20:08;;;;;;;3.07;1.87;;;;;;;;;;6127515;23;20181;-78
2023/01/23 04:22:34;;;;;;;5.10;2.70;;;;;;;;;;6153126;23;20494;-78
2023/01/23 04:24:59;;;;;;;3.77;2.47;;;;;;;;;;6135285;23;20200;-72
2023/01/23 04:27:24;;;;;;;3.60;2.37;;;;;;;;;;6177276;23;20148;-70
2023/01/23 04:29:50;;;;;;;4.80;2.43;;;;;;;;;;6180938;23;20198;-70
2023/01/23 04:32:15;;;;;;;7.57;2.60;;;;;;;;;;6171138;23;20169;-69
2023/01/23 04:34:40;;;;;;;4.93;2.70;;;;;;;;;;6150373;23;20165;-70
2023/01/23 04:37:09;;;;;;;4.53;3.30;;;;;;;;;;6150252;23;20196;-70
2023/01/23 04:39:34;;;;;;;6.63;3.10;;;;;;;;;;6152344;23;20200;-72
2023/01/23 04:41:59;;;;;;;5.93;2.80;;;;;;;;;;6146319;23;20411;-70
2023/01/23 04:44:26;;;;;;;6.20;3.03;;;;;;;;;;6151005;23;20149;-70
2023/01/23 04:46:52;;;;;;;7.37;3.10;;;;;;;;;;6148987;23;20274;-69
2023/01/23 04:49:18;;;;;;;7.87;3.03;;;;;;;;;;6146547;23;20365;-69
2023/01/23 04:54:39;;;;;;;5.83;3.37;;;;;;;;;;6210062;23;20155;-69
2023/01/23 04:57:05;;;;;;;5.63;3.00;;;;;;;;;;6181588;23;20467;-70
2023/01/23 04:59:30;;;;;;;6.23;2.83;;;;;;;;;;6210483;23;20452;-71
2023/01/23 05:01:55;;;;;;;7.13;3.10;;;;;;;;;;6210667;23;20170;-69
2023/01/23 05:04:20;;;;;;;5.67;3.37;;;;;;;;;;6209405;23;20618;-69
2023/01/23 05:06:49;;;;;;;4.80;3.20;;;;;;;;;;6180285;23;20243;-69
2023/01/23 05:09:14;;;;;;;3.00;2.70;;;;;;;;;;6171742;23;20494;-68
2023/01/23 05:11:39;;;;;;;3.87;2.87;;;;;;;;;;6208157;23;20379;-68
2023/01/23 05:14:05;;;;;;;4.50;3.13;;;;;;;;;;6208560;23;20293;-69
2023/01/23 05:16:30;;;;;;;4.87;3.10;;;;;;;;;;6205974;23;20202;-68
2023/01/23 05:18:55;;;;;;;4.00;2.50;;;;;;;;;;6182257;23;20643;-68
2023/01/23 05:21:21;;;;;;;4.57;2.60;;;;;;;;;;6208468;23;20168;-69
2023/01/23 05:23:46;;;;;;;6.20;2.83;;;;;;;;;;6212904;23;20553;-68
2023/01/23 05:26:11;;;;;;;6.23;2.90;;;;;;;;;;6211732;23;20945;-68
2023/01/23 05:28:37;;;;;;;5.70;3.20;;;;;;;;;;6213215;23;20197;-68
2023/01/23 05:31:02;;;;;;;4.77;2.63;;;;;;;;;;6213930;23;20153;-68
2023/01/23 05:33:27;;;;;;;3.47;2.53;;;;;;;;;;6186471;23;20176;-68
2023/01/23 05:35:57;;;;;;;4.63;2.97;;;;;;;;;;6212301;23;20148;-68
2023/01/23 05:38:23;;;;;;;3.03;2.77;;;;;;;;;;6212248;23;20148;-70
2023/01/23 05:40:48;;;;;;;3.77;2.90;;;;;;;;;;6186826;23;20723;-68
2023/01/23 05:43:14;;;;;;;3.47;2.10;;;;;;;;;;6212125;23;20167;-68
2023/01/23 05:45:39;;;;;;;5.50;2.80;;;;;;;;;;6185381;23;20148;-68
2023/01/23 05:48:05;;;;;;;5.67;2.57;;;;;;;;;;6189212;23;20458;-70
2023/01/23 05:50:30;;;;;;;7.00;3.70;;;;;;;;;;6215104;23;20151;-71
2023/01/23 05:52:55;;;;;;;4.97;2.93;;;;;;;;;;6229555;23;20244;-70
2023/01/23 05:55:21;;;;;;;3.47;2.70;;;;;;;;;;6216116;23;20159;-69
2023/01/23 05:57:46;;;;;;;4.50;2.73;;;;;;;;;;6245493;23;20610;-71
2023/01/23 06:00:12;;;;;;;6.33;2.97;;;;;;;;;;6216898;23;20175;-70
2023/01/23 06:02:38;;;;;;;5.30;2.73;;;;;;;;;;6244695;23;20250;-70
2023/01/23 06:05:03;;;;;;;5.43;2.60;;;;;;;;;;6246052;23;20443;-68
2023/01/23 06:07:29;;;;;;;6.07;2.63;;;;;;;;;;6245146;23;20174;-70
2023/01/23 06:09:54;;;;;;;4.33;3.90;;;;;;;;;;6218232;23;20158;-70
2023/01/23 06:12:19;;;;;;;3.77;2.33;;;;;;;;;;6218100;23;20178;-70
2023/01/23 06:14:45;;;;;;;2.67;2.00;;;;;;;;;;6244188;23;20143;-70
2023/01/23 06:17:11;;;;;;;3.70;2.67;;;;;;;;;;6218529;23;20278;-70
2023/01/23 06:19:36;;;;;;;4.47;2.93;;;;;;;;;;6242975;23;20445;-70
2023/01/23 06:22:02;;;;;;;2.97;2.23;;;;;;;;;;6244780;23;20167;-68
2023/01/23 06:24:27;;;;;;;3.80;2.40;;;;;;;;;;6244825;23;20201;-69
2023/01/23 06:26:52;;;;;;;3.90;2.53;;;;;;;;;;6243405;23;20178;-68
2023/01/23 06:29:18;;;;;;;3.40;2.33;;;;;;;;;;6241261;23;20148;-67
2023/01/23 06:31:44;;;;;;;3.30;2.67;;;;;;;;;;6215741;23;20159;-67
2023/01/23 06:34:10;;;;;;;4.53;2.50;;;;;;;;;;6211766;23;20184;-68
2023/01/23 06:36:35;;;;;;;2.40;1.83;;;;;;;;;;6214731;23;20469;-68
2023/01/23 06:39:01;;;;;;;4.13;2.47;;;;;;;;;;6241781;23;20174;-68
2023/01/23 06:41:26;;;;;;;2.93;2.53;;;;;;;;;;6241418;23;20205;-71
2023/01/23 06:43:52;;;;;;;4.40;2.63;;;;;;;;;;6216225;23;20179;-68
2023/01/23 06:46:17;;;;;;;3.43;2.50;;;;;;;;;;6244057;23;20139;-67
2023/01/23 06:48:43;;;;;;;5.33;3.17;;;;;;;;;;6242819;23;20377;-67
2023/01/23 06:51:08;;;;;;;5.13;3.23;;;;;;;;;;6243327;23;20147;-67
2023/01/23 06:53:34;;;;;;;3.43;2.43;;;;;;;;;;6244210;23;20182;-68
2023/01/23 06:56:04;;;;;;;5.37;3.60;;;;;;;;;;6245429;23;20150;-69
2023/01/23 06:58:29;;;;;;;4.40;3.33;;;;;;;;;;6243757;23;20649;-70
2023/01/23 07:00:55;;;;;;;4.20;3.80;;;;;;;;;;6244932;23;20362;-70
2023/01/23 07:03:20;;;;;;;5.07;4.10;;;;;;;;;;6243106;23;20163;-69
2023/01/23 07:05:45;;;;;;;4.27;3.83;;;;;;;;;;6244642;23;20143;-69
2023/01/23 07:08:11;;;;;;;4.20;3.80;;;;;;;;;;6216610;23;20152;-69
2023/01/23 07:10:37;;;;;;;5.30;3.80;;;;;;;;;;6243742;23;20824;-69
2023/01/23 07:13:06;;;;;;;4.63;3.30;;;;;;;;;;6245809;23;20550;-70
2023/01/23 07:15:31;;;;;;;4.47;3.40;;;;;;;;;;6243945;23;20273;-70
2023/01/23 07:17:57;;;;;;;6.30;3.87;;;;;;;;;;6244304;23;20837;-70
2023/01/23 07:20:26;;;;;;;6.40;4.17;;;;;;;;;;6244956;23;20171;-70
2023/01/23 07:22:51;;;;;;;4.90;3.57;;;;;;;;;;6243737;23;20170;-70
2023/01/23 07:25:16;;;;;;;4.60;3.50;;;;;;;;;;6241278;23;20795;-69
2023/01/23 07:27:42;;;;;;;4.07;3.67;;;;;;;;;;6215875;23;20147;-70
2023/01/23 07:30:08;;;;;;;7.47;5.60;;;;;;;;;;6217799;23;20151;-71
2023/01/23 07:32:36;;;;;;;9.23;6.53;;;;;;;;;;6215276;23;20179;-70
2023/01/23 07:35:01;;;;;;;6.40;5.33;;;;;;;;;;6244864;23;20927;-73
2023/01/23 07:37:27;;;;;;;7.30;5.20;;;;;;;;;;6216528;23;20413;-70
2023/01/23 07:39:52;;;;;;;6.23;4.87;;;;;;;;;;6217006;23;20516;-70
2023/01/23 07:42:18;;;;;;;5.83;4.53;;;;;;;;;;6244433;23;20166;-70
2023/01/23 07:44:43;;;;;;;5.93;5.33;;;;;;;;;;6242108;23;20151;-70
2023/01/23 07:47:09;;;;;;;5.53;4.93;;;;;;;;;;6243534;23;20223;-70
2023/01/23 07:49:34;;;;;;;7.23;4.70;;;;;;;;;;6217586;23;20155;-69
2023/01/23 07:51:59;;;;;;;7.57;5.07;;;;;;;;;;6244281;23;20619;-68
2023/01/23 07:54:25;;;;;;;7.70;4.80;;;;;;;;;;6217451;23;20147;-69
2023/01/23 07:56:50;;;;;;;7.93;5.67;;;;;;;;;;6243923;23;20147;-69
2023/01/23 07:59:15;;;;;;;6.93;5.53;;;;;;;;;;6243206;23;20163;-69
2023/01/23 08:04:08;;;;;;;7.10;5.57;;;;;;;;;;6213069;23;20199;-69
2023/01/23 08:06:35;;;;;;;7.33;6.63;;;;;;;;;;6213045;23;20374;-69
2023/01/23 08:09:00;;;;;;;7.43;6.23;;;;;;;;;;6210682;23;20178;-70
2023/01/23 08:11:26;;;;;;;6.80;5.90;;;;;;;;;;6213814;23;20454;-70
2023/01/23 08:13:52;;;;;;;6.87;5.43;;;;;;;;;;6156507;23;20528;-70
2023/01/23 08:16:17;;;;;;;7.73;6.50;;;;;;;;;;6181447;23;20368;-69
2023/01/23 08:18:42;;;;;;;9.83;5.50;;;;;;;;;;6180728;23;20180;-70
2023/01/23 08:21:08;;;;;;;5.93;5.30;;;;;;;;;;6183783;23;20144;-70
2023/01/23 08:23:34;;;;;;;7.17;5.10;;;;;;;;;;6181352;23;20191;-69
2023/01/23 08:26:01;;;;;;;6.90;5.57;;;;;;;;;;6180966;23;20274;-71
2023/01/23 08:28:26;;;;;;;5.67;5.17;;;;;;;;;;6181286;23;20503;-70
2023/01/23 08:30:52;;;;;;;7.37;5.67;;;;;;;;;;6181770;23;20404;-70
2023/01/23 08:33:18;;;;;;;8.47;5.80;;;;;;;;;;6155321;23;20260;-70
2023/01/23 08:35:53;;;;;;;7.57;5.97;;;;;;;;;;6182934;23;20232;-69
2023/01/23 08:38:19;;;;;;;7.07;5.97;;;;;;;;;;6183321;23;20568;-70
2023/01/23 08:40:45;;;;;;;6.20;5.60;;;;;;;;;;6183161;23;20429;-71
2023/01/23 08:43:12;;;;;;;8.00;6.30;;;;;;;;;;6183244;23;20169;-70
2023/01/23 08:45:38;;;;;;;10.37;6.50;;;;;;;;;;6182078;23;20531;-70
2023/01/23 08:48:03;;;;;;;7.63;6.67;;;;;;;;;;6182701;23;20375;-70
2023/01/23 08:50:28;;;;;;;8.93;6.67;;;;;;;;;;6155294;23;20156;-70
2023/01/23 08:52:54;;;;;;;7.60;6.80;;;;;;;;;;6182042;23;20164;-70
2023/01/23 08:55:19;;;;;;;7.37;6.30;;;;;;;;;;6183274;23;20148;-70
2023/01/23 08:57:44;;;;;;;8.17;6.70;;;;;;;;;;6155464;23;20592;-70
2023/01/23 09:00:10;;;;;;;9.13;6.87;;;;;;;;;;6179985;23;20264;-70
2023/01/23 09:02:35;;;;;;;7.10;6.40;;;;;;;;;;6153627;23;20187;-70
2023/01/23 09:05:01;;;;;;;10.73;7.90;;;;;;;;;;6178800;23;20145;-70
2023/01/23 09:07:26;;;;;;;14.53;7.63;;;;;;;;;;6181721;23;20164;-70
2023/01/23 09:09:53;;;;;;;8.27;7.47;;;;;;;;;;6181101;23;20176;-70
2023/01/23 09:12:19;;;;;;;9.00;6.90;;;;;;;;;;6181542;23;20569;-70
2023/01/23 09:14:46;;;;;;;9.20;7.87;;;;;;;;;;6180553;23;20399;-70
2023/01/23 09:17:12;;;;;;;9.97;7.57;;;;;;;;;;6183147;23;20160;-70
2023/01/23 09:19:37;;;;;;;8.67;7.87;;;;;;;;;;6153075;23;20419;-70
2023/01/23 09:22:03;;;;;;;9.40;7.70;;;;;;;;;;6155812;23;20183;-71
2023/01/23 09:24:28;;;;;;;10.63;7.80;;;;;;;;;;6182579;23;20147;-70
2023/01/23 09:26:54;;;;;;;9.67;7.87;;;;;;;;;;6182307;23;20145;-69
2023/01/23 09:29:19;;;;;;;10.20;7.57;;;;;;;;;;6153825;23;20203;-69
2023/01/23 09:34:12;;;;;;;10.63;7.37;;;;;;;;;;6240281;23;20167;-69
2023/01/23 09:36:38;;;;;;;10.33;7.30;;;;;;;;;;6244291;23;20891;-69
2023/01/23 09:39:06;;;;;;;10.20;7.70;;;;;;;;;;6240119;23;20405;-69
2023/01/23 09:41:32;;;;;;;8.50;7.13;;;;;;;;;;6213549;23;20209;-69
2023/01/23 09:44:08;;;;;;;10.57;8.17;;;;;;;;;;6242205;23;20374;-69
2023/01/23 09:46:45;;;;;;;9.87;7.60;;;;;;;;;;6242823;23;20143;-69
2023/01/23 09:49:18;;;;;;;9.97;7.70;;;;;;;;;;6240766;23;20357;-69
2023/01/23 09:51:47;;;;;;;11.03;7.83;;;;;;;;;;6241817;23;20370;-69
2023/01/23 09:54:27;;;;;;;8.13;6.90;;;;;;;;;;6241127;23;20457;-69
2023/01/23 09:56:54;;;;;;;11.13;8.60;;;;;;;;;;6242626;23;20428;-69
2023/01/23 09:59:36;;;;;;;11.37;8.33;;;;;;;;;;6212189;23;20413;-69
2023/01/23 10:02:19;;;;;;;11.47;9.40;;;;;;;;;;6239758;23;20386;-69
2023/01/23 10:04:56;;;;;;;9.87;8.13;;;;;;;;;;6240080;23;20362;-70
2023/01/23 10:07:25;;;;;;;10.20;8.20;;;;;;;;;;6241812;23;20342;-70
2023/01/23 10:09:56;;;;;;;10.30;7.90;;;;;;;;;;6213869;23;20420;-70
2023/01/23 10:12:30;;;;;;;9.33;7.83;;;;;;;;;;6243403;23;20386;-70
2023/01/23 10:15:14;;;;;;;9.00;7.93;;;;;;;;;;6213377;23;20381;-70
2023/01/23 10:17:42;;;;;;;11.10;7.13;;;;;;;;;;6214086;23;20413;-74
2023/01/23 10:20:29;;;;;;;10.03;8.00;;;;;;;;;;6217079;23;20530;-69
2023/01/23 10:23:13;;;;;;;9.30;7.37;;;;;;;;;;6215282;23;20831;-71
2023/01/23 10:25:39;;;;;;;9.23;7.33;;;;;;;;;;6243593;23;20365;-69
2023/01/23 10:28:23;;;;;;;8.63;7.73;;;;;;;;;;6242876;23;20362;-70
2023/01/23 10:30:52;;;;;;;8.57;7.67;;;;;;;;;;6217008;23;20763;-68
2023/01/23 10:33:18;;;;;;;7.93;7.10;;;;;;;;;;6229766;23;20508;-68
2023/01/23 10:35:52;;;;;;;10.57;8.50;;;;;;;;;;6241821;22;20420;-68
2023/01/23 10:38:36;;;;;;;8.83;6.83;;;;;;;;;;6242629;23;20409;-68
2023/01/23 10:41:13;;;;;;;10.00;7.60;;;;;;;;;;6240876;22;20432;-68
2023/01/23 10:43:40;;;;;;;8.37;7.57;;;;;;;;;;6243663;22;20381;-68
2023/01/23 10:46:13;;;;;;;9.17;7.87;;;;;;;;;;6243160;22;20373;-68
2023/01/23 10:48:42;;;;;;;9.07;7.63;;;;;;;;;;6243047;22;20363;-69
2023/01/23 10:51:27;;;;;;;12.40;8.10;;;;;;;;;;6241602;23;20466;-69
2023/01/23 10:54:11;;;;;;;10.00;8.37;;;;;;;;;;6241044;23;20378;-69
2023/01/23 10:56:44;;;;;;;10.23;7.37;;;;;;;;;;6241542;22;20449;-68
2023/01/23 10:59:17;;;;;;;9.37;8.37;;;;;;;;;;6240815;23;20409;-70
2023/01/23 11:01:52;;;;;;;10.90;8.10;;;;;;;;;;6241976;22;20442;-69
2023/01/23 11:04:19;;;;;;;11.30;8.40;;;;;;;;;;6241701;22;20706;-69
2023/01/23 11:06:58;;;;;;;8.00;7.20;;;;;;;;;;6241977;23;20389;-70
2023/01/23 11:09:24;;;;;;;7.60;6.90;;;;;;;;;;6243553;23;20378;-69
2023/01/23 11:11:59;;;;;;;9.53;7.40;;;;;;;;;;6244672;22;20400;-69
2023/01/23 11:14:24;;;;;;;8.83;6.87;;;;;;;;;;6243507;23;20591;-71
2023/01/23 11:17:11;;;;;;;11.13;7.10;;;;;;;;;;6245117;23;20372;-69
2023/01/23 11:19:36;;;;;;;8.60;7.57;;;;;;;;;;6244893;22;20163;-69
2023/01/23 11:22:03;;;;;;;8.60;6.90;;;;;;;;;;6244537;22;20393;-69
2023/01/23 11:24:38;;;;;;;11.17;7.83;;;;;;;;;;6244062;23;20230;-69
2023/01/23 11:27:25;;;;;;;8.63;7.67;;;;;;;;;;6245157;22;20372;-69
2023/01/23 11:30:09;;;;;;;7.37;6.67;;;;;;;;;;6243175;23;20461;-68
2023/01/23 11:32:41;;;;;;;9.60;7.10;;;;;;;;;;6244224;23;20750;-70
2023/01/23 11:35:18;;;;;;;11.17;7.90;;;;;;;;;;6217735;23;20710;-69
2023/01/23 11:37:44;;;;;;;9.00;6.87;;;;;;;;;;6217868;23;20694;-69
2023/01/23 11:40:15;;;;;;;7.10;6.13;;;;;;;;;;6244496;23;20405;-69
2023/01/23 11:42:41;;;;;;;8.63;7.40;;;;;;;;;;6217871;23;21032;-69
2023/01/23 11:45:25;;;;;;;9.30;6.40;;;;;;;;;;6243803;23;20372;-69
2023/01/23 11:47:50;;;;;;;9.40;7.03;;;;;;;;;;6244481;23;20459;-68
2023/01/23 11:50:18;;;;;;;8.47;7.20;;;;;;;;;;6217628;23;20373;-69
2023/01/23 11:52:43;;;;;;;7.07;6.23;;;;;;;;;;6243730;23;20167;-70
2023/01/23 11:55:09;;;;;;;9.43;7.70;;;;;;;;;;6217211;23;20444;-69
2023/01/23 11:57:53;;;;;;;9.33;7.80;;;;;;;;;;6241209;23;20143;-69
2023/01/23 12:00:25;;;;;;;8.60;6.70;;;;;;;;;;6215314;23;20171;-70
2023/01/23 12:02:51;;;;;;;7.10;6.40;;;;;;;;;;6214032;23;20401;-69
2023/01/23 12:05:26;;;;;;;6.23;5.63;;;;;;;;;;6240887;23;20358;-69
2023/01/23 12:08:03;;;;;;;10.77;6.30;;;;;;;;;;6212989;23;20146;-69
2023/01/23 12:10:33;;;;;;;6.07;5.47;;;;;;;;;;6243990;23;20389;-68
2023/01/23 12:13:14;;;;;;;10.27;7.00;;;;;;;;;;6214417;23;20402;-69
2023/01/23 12:15:43;;;;;;;8.60;7.33;;;;;;;;;;6242950;23;20362;-70
2023/01/23 12:18:23;;;;;;;8.03;6.50;;;;;;;;;;6242474;23;20371;-69
2023/01/23 12:20:52;;;;;;;8.17;6.63;;;;;;;;;;6244013;23;20417;-68
2023/01/23 12:23:24;;;;;;;9.23;6.63;;;;;;;;;;6243986;23;20835;-68
2023/01/23 12:25:54;;;;;;;9.27;5.77;;;;;;;;;;6242098;23;20899;-68
2023/01/23 12:28:22;;;;;;;7.57;6.70;;;;;;;;;;6240125;23;20700;-68
2023/01/23 12:30:56;;;;;;;7.00;6.27;;;;;;;;;;6243728;23;21125;-68
2023/01/23 12:33:27;;;;;;;7.80;6.53;;;;;;;;;;6239902;23;20884;-71
2023/01/23 12:36:16;;;;;;;8.90;7.50;;;;;;;;;;6242038;23;20378;-68
2023/01/23 12:39:00;;;;;;;7.00;6.30;;;;;;;;;;6198873;23;20486;-68
2023/01/23 12:41:35;;;;;;;8.27;6.53;;;;;;;;;;6242428;23;20428;-69
2023/01/23 12:44:17;;;;;;;7.70;6.70;;;;;;;;;;6215176;23;20401;-67
2023/01/23 12:46:42;;;;;;;7.03;6.33;;;;;;;;;;6243151;23;20401;-68
2023/01/23 12:49:20;;;;;;;8.77;6.70;;;;;;;;;;6241886;23;20374;-68
2023/01/23 12:51:48;;;;;;;10.00;7.13;;;;;;;;;;6207995;23;20545;-73
2023/01/23 12:54:23;;;;;;;10.53;7.20;;;;;;;;;;6121088;23;20880;-73
2023/01/23 12:56:49;;;;;;;8.93;7.53;;;;;;;;;;6119368;23;20354;-73
2023/01/23 12:59:24;;;;;;;8.07;6.70;;;;;;;;;;6119429;23;20448;-73
2023/01/23 13:02:11;;;;;;;8.77;7.23;;;;;;;;;;6120569;23;20844;-73
2023/01/23 13:04:49;;;;;;;8.60;6.93;;;;;;;;;;6095246;23;20472;-73
2023/01/23 13:07:31;;;;;;;7.83;6.53;;;;;;;;;;6095949;23;20468;-73
2023/01/23 13:10:06;;;;;;;5.53;4.93;;;;;;;;;;6120285;23;20358;-73
2023/01/23 13:12:32;;;;;;;7.00;5.53;;;;;;;;;;6091350;23;20389;-73
2023/01/23 13:15:15;;;;;;;6.67;5.33;;;;;;;;;;6121076;23;20449;-73
2023/01/23 13:17:45;;;;;;;5.10;4.40;;;;;;;;;;6095288;23;20185;-73
2023/01/23 13:23:20;;;;;;;4.00;3.13;;;;;;;;;;6122278;23;20477;-73
2023/01/23 13:25:46;;;;;;;3.60;2.77;;;;;;;;;;6095581;23;20721;-73
2023/01/23 13:28:38;;;;;;;3.20;2.57;;;;;;;;;;6094158;23;20388;-73
2023/01/23 13:31:03;;;;;;;4.03;2.77;;;;;;;;;;6118164;23;20165;-73
2023/01/23 13:33:29;;;;;;;4.10;3.00;;;;;;;;;;6093437;23;21055;-73
2023/01/23 13:35:57;;;;;;;3.60;3.23;;;;;;;;;;6120779;23;20177;-74
2023/01/23 13:38:28;;;;;;;4.03;3.57;;;;;;;;;;6117903;23;20150;-72
2023/01/23 13:41:03;;;;;;;4.20;3.23;;;;;;;;;;6093976;23;20386;-73
2023/01/23 13:43:41;;;;;;;3.30;2.73;;;;;;;;;;6118913;23;20448;-72
2023/01/23 13:46:16;;;;;;;3.27;2.97;;;;;;;;;;6120050;23;20393;-72
2023/01/23 13:51:34;;;;;;;2.73;2.40;;;;;;;;;;6114195;23;21084;-72
2023/01/23 13:56:46;;;;;;;2.83;2.27;;;;;;;;;;6117345;23;20220;-72
2023/01/23 13:59:13;;;;;;;2.60;2.40;;;;;;;;;;6117390;23;20413;-72
2023/01/23 14:10:16;;;;;;;2.00;1.77;;;;;;;;;;6121526;23;20423;-72
2023/01/23 14:12:42;;;;;;;2.60;2.40;;;;;;;;;;6092809;23;20468;-72
2023/01/23 14:18:14;;;;;;;2.07;1.87;;;;;;;;;;6121015;23;20166;-73
2023/01/23 14:20:39;;;;;;;2.33;1.97;;;;;;;;;;6120490;23;20899;-73
2023/01/23 14:23:15;;;;;;;2.50;2.30;;;;;;;;;;6118762;23;20374;-73
2023/01/23 14:25:41;;;;;;;1.87;1.77;;;;;;;;;;6087697;23;20195;-72
2023/01/23 14:28:06;;;;;;;2.17;1.97;;;;;;;;;;6115624;23;20405;-73
2023/01/23 14:30:31;;;;;;;2.17;1.83;;;;;;;;;;6117503;23;20183;-73
2023/01/23 14:33:00;;;;;;;1.90;1.50;;;;;;;;;;6092888;23;20158;-74
2023/01/23 14:35:26;;;;;;;2.43;1.93;;;;;;;;;;6118999;23;20173;-75
2023/01/23 14:37:53;;;;;;;3.00;2.30;;;;;;;;;;6120543;23;20378;-75
2023/01/23 14:40:19;;;;;;;3.00;2.17;;;;;;;;;;6121199;23;20417;-75
2023/01/23 14:42:45;;;;;;;2.90;2.23;;;;;;;;;;6117287;23;20859;-76
2023/01/23 14:45:12;;;;;;;3.77;2.47;;;;;;;;;;6092687;23;20900;-76
2023/01/23 14:47:40;;;;;;;2.53;2.33;;;;;;;;;;6095541;23;20154;-76
2023/01/23 14:50:19;;;;;;;3.20;2.90;;;;;;;;;;6122260;23;20381;-75
2023/01/23 14:52:44;;;;;;;3.20;2.53;;;;;;;;;;6119052;23;20393;-74
2023/01/23 14:55:20;;;;;;;3.50;2.87;;;;;;;;;;6122349;23;20425;-74
2023/01/23 14:57:45;;;;;;;3.00;2.70;;;;;;;;;;6121891;23;20176;-75
2023/01/23 15:00:13;;;;;;;3.90;2.97;;;;;;;;;;6119805;23;20910;-74
2023/01/23 15:02:39;;;;;;;2.80;2.50;;;;;;;;;;6122572;23;20146;-75
2023/01/23 15:05:10;;;;;;;2.77;2.47;;;;;;;;;;6095810;23;20500;-74
2023/01/23 15:08:06;;;;;;;3.40;2.70;;;;;;;;;;6094406;23;20885;-76
2023/01/23 15:10:42;;;;;;;3.80;2.97;;;;;;;;;;6106370;23;20468;-74
2023/01/23 15:13:11;;;;;;;2.57;2.37;;;;;;;;;;6121024;23;20357;-77
2023/01/23 15:15:37;;;;;;;2.87;2.47;;;;;;;;;;6119073;23;20393;-75
2023/01/23 15:18:20;;;;;;;3.03;2.60;;;;;;;;;;6119328;23;20381;-74
2023/01/23 15:20:56;;;;;;;3.33;3.00;;;;;;;;;;6096837;23;20620;-74
2023/01/23 15:23:27;;;;;;;3.47;3.17;;;;;;;;;;6121065;23;20387;-75